Time;durP1;ratioP1;P1;durP2;ratioP2;P2;SDS_P1;SDS_P2;PMS_P1;PMS_P2;Temp;Humidity;BMP_temperature;BMP_pressure;BME280_temperature;BME280_humidity;BME280_pressure;Samples;Min_cycle;Max_cycle;Signal;HPM_P1;HPM_P2
2024/03/22 00:10:30;;;;;;;73.40;40.03;;;11.50;99.90;;;;;;6300978;22;20048;-83
2024/03/22 00:18:34;;;;;;;79.25;43.28;;;11.40;99.90;;;;;;6254271;22;20015;-81
2024/03/22 00:24:41;;;;;;;92.15;46.90;;;11.40;99.90;;;;;;6265716;22;39963;-81
2024/03/22 00:27:11;;;;;;;97.93;47.80;;;11.30;99.90;;;;;;6294649;22;39086;-81
2024/03/22 00:29:47;;;;;;;91.32;48.05;;;11.20;99.90;;;;;;6303360;22;38838;-81
2024/03/22 00:32:17;;;;;;;98.78;48.22;;;11.10;99.90;;;;;;6232355;22;40146;-80
2024/03/22 00:34:45;;;;;;;91.40;48.22;;;11.20;99.90;;;;;;6282393;22;38821;-79
2024/03/22 00:37:13;;;;;;;101.53;50.00;;;11.10;99.90;;;;;;6302578;22;37989;-80
2024/03/22 00:39:42;;;;;;;99.85;50.50;;;11.10;99.90;;;;;;6292848;22;36733;-81
2024/03/22 00:42:16;;;;;;;95.30;48.20;;;11.10;99.90;;;;;;6289620;22;38236;-81
2024/03/22 00:44:49;;;;;;;95.32;48.83;;;11.00;99.90;;;;;;6262774;22;39359;-80
2024/03/22 00:47:26;;;;;;;92.57;46.08;;;11.00;99.90;;;;;;6218054;22;38887;-80
2024/03/22 00:50:01;;;;;;;105.90;52.88;;;11.00;99.90;;;;;;6290388;22;38370;-80
2024/03/22 00:52:41;;;;;;;95.05;50.88;;;10.90;99.90;;;;;;6301400;22;49986;-80
2024/03/22 00:55:17;;;;;;;99.20;47.50;;;10.80;99.90;;;;;;6290570;22;39376;-81
2024/03/22 00:58:03;;;;;;;105.90;50.97;;;10.90;99.90;;;;;;6333295;22;39724;-80
2024/03/22 01:00:44;;;;;;;106.10;51.28;;;10.80;99.90;;;;;;6323282;22;49495;-81
2024/03/22 01:04:12;;;;;;;99.03;49.38;;;10.80;99.90;;;;;;6283126;22;40184;-80
2024/03/22 01:06:41;;;;;;;89.27;44.07;;;10.80;99.90;;;;;;6299088;22;50144;-80
2024/03/22 01:09:31;;;;;;;82.07;40.78;;;10.70;99.90;;;;;;6268832;22;40606;-80
2024/03/22 01:12:19;;;;;;;69.63;36.33;;;10.70;99.90;;;;;;6315483;22;37837;-81
2024/03/22 01:15:09;;;;;;;78.13;35.83;;;10.70;99.90;;;;;;6274762;22;39585;-81
2024/03/22 01:17:42;;;;;;;77.10;36.20;;;10.70;99.90;;;;;;6308564;22;49013;-80
2024/03/22 01:20:13;;;;;;;80.28;36.72;;;10.60;99.90;;;;;;6294228;22;39930;-81
2024/03/22 01:22:49;;;;;;;84.35;37.22;;;10.60;99.90;;;;;;6328712;22;39025;-82
2024/03/22 01:25:33;;;;;;;73.13;35.67;;;10.60;99.90;;;;;;6250236;22;39741;-81
2024/03/22 01:28:23;;;;;;;76.53;33.93;;;10.60;99.90;;;;;;6304732;22;37994;-81
2024/03/22 01:30:58;;;;;;;73.28;34.63;;;10.60;99.90;;;;;;6246267;22;48887;-81
2024/03/22 01:55:26;;;;;;;52.38;26.88;;;10.60;99.90;;;;;;6322539;22;39788;-81
2024/03/22 01:57:56;;;;;;;58.63;27.83;;;10.60;99.90;;;;;;6269598;22;37843;-82
2024/03/22 02:03:01;;;;;;;56.17;28.35;;;10.60;99.90;;;;;;6258563;22;20007;-81
2024/03/22 02:05:28;;;;;;;50.00;27.35;;;10.60;99.90;;;;;;6307934;22;47944;-82
2024/03/22 02:08:15;;;;;;;51.05;27.98;;;10.60;99.90;;;;;;6268214;22;38114;-82
2024/03/22 02:10:44;;;;;;;48.95;26.83;;;10.60;99.90;;;;;;6249085;22;48595;-81
2024/03/22 02:13:28;;;;;;;53.30;27.75;;;10.50;99.90;;;;;;6256263;22;42179;-81
2024/03/22 02:16:03;;;;;;;58.03;28.88;;;10.60;99.90;;;;;;6297082;22;39197;-82
2024/03/22 02:18:33;;;;;;;56.67;28.08;;;10.60;99.90;;;;;;6286856;22;49402;-81
2024/03/22 02:21:17;;;;;;;53.35;28.75;;;10.60;99.90;;;;;;6326927;22;40071;-82
2024/03/22 02:23:46;;;;;;;55.70;28.17;;;10.60;99.90;;;;;;6261524;22;38900;-82
2024/03/22 02:26:28;;;;;;;52.83;26.55;;;10.70;99.90;;;;;;6283412;22;39387;-81
2024/03/22 02:29:01;;;;;;;54.13;27.55;;;10.70;99.90;;;;;;6301180;22;36864;-81
2024/03/22 02:31:34;;;;;;;55.00;28.70;;;10.60;99.90;;;;;;6283053;22;37607;-81
2024/03/22 02:34:04;;;;;;;;;;;10.60;99.90;;;;;;6304673;22;39422;-82
2024/03/22 02:36:42;;;;;;;58.53;26.13;;;10.60;99.90;;;;;;6256876;22;40394;-81
2024/03/22 02:39:14;;;;;;;52.22;26.35;;;10.60;99.90;;;;;;6252698;22;38271;-81
2024/03/22 02:41:55;;;;;;;49.65;25.85;;;10.60;99.90;;;;;;6289089;22;39194;-81
2024/03/22 02:44:25;;;;;;;56.67;27.52;;;10.60;99.90;;;;;;6271079;22;39603;-81
2024/03/22 02:46:55;;;;;;;51.60;25.80;;;10.60;99.90;;;;;;6276305;22;38174;-81
2024/03/22 02:49:30;;;;;;;49.60;25.23;;;10.60;99.90;;;;;;6261884;22;38868;-81
2024/03/22 02:52:11;;;;;;;47.00;24.40;;;10.60;99.90;;;;;;6310480;22;40075;-81
2024/03/22 02:54:41;;;;;;;41.85;23.55;;;10.60;99.90;;;;;;6263426;22;39240;-81
2024/03/22 02:57:28;;;;;;;46.72;25.05;;;10.60;99.90;;;;;;6265504;22;38403;-81
2024/03/22 03:00:03;;;;;;;54.35;24.98;;;10.60;99.90;;;;;;6293754;22;36897;-82
2024/03/22 03:02:43;;;;;;;47.88;24.73;;;10.60;99.90;;;;;;6327380;22;39750;-81
2024/03/22 03:05:52;;;;;;;45.08;24.25;;;10.60;99.90;;;;;;6261893;22;39299;-81
2024/03/22 03:08:30;;;;;;;44.58;21.83;;;10.60;99.90;;;;;;6250214;22;39528;-82
2024/03/22 03:10:58;;;;;;;41.10;23.75;;;10.60;99.90;;;;;;6290701;22;37242;-81
2024/03/22 03:13:29;;;;;;;50.50;24.38;;;10.50;99.90;;;;;;6289670;22;40367;-80
2024/03/22 03:15:58;;;;;;;44.47;22.87;;;10.50;99.90;;;;;;6294830;22;40489;-80
2024/03/22 03:18:27;;;;;;;43.03;22.80;;;10.50;99.90;;;;;;6319612;22;39847;-81
2024/03/22 03:20:58;;;;;;;38.22;23.55;;;10.50;99.90;;;;;;6307509;22;40680;-81
2024/03/22 03:23:55;;;;;;;41.60;21.50;;;10.50;99.90;;;;;;6270714;22;50080;-80
2024/03/22 03:26:41;;;;;;;48.65;24.65;;;10.50;99.90;;;;;;6286399;22;39232;-80
2024/03/22 03:29:09;;;;;;;46.75;24.33;;;10.50;99.90;;;;;;6265025;22;38301;-80
2024/03/22 03:31:39;;;;;;;47.55;25.30;;;10.40;99.90;;;;;;6299060;22;38460;-79
2024/03/22 03:34:12;;;;;;;48.25;26.33;;;10.50;99.90;;;;;;6262304;22;40435;-81
2024/03/22 03:37:20;;;;;;;52.05;27.40;;;10.50;99.90;;;;;;6308631;22;41285;-79
2024/03/22 03:39:51;;;;;;;52.92;27.60;;;10.50;99.90;;;;;;6241950;22;47733;-80
2024/03/22 03:42:21;;;;;;;53.15;29.10;;;10.50;99.90;;;;;;6291293;22;37084;-80
2024/03/22 03:45:19;;;;;;;57.83;28.90;;;10.50;99.90;;;;;;6254327;22;39339;-80
2024/03/22 03:47:51;;;;;;;51.47;28.60;;;10.40;99.90;;;;;;6284918;22;39099;-80
2024/03/22 03:50:19;;;;;;;57.90;29.88;;;10.40;99.90;;;;;;6292116;22;37714;-81
2024/03/22 03:53:17;;;;;;;60.75;31.17;;;10.40;99.90;;;;;;6292119;22;37631;-81
2024/03/22 03:56:14;;;;;;;65.55;35.17;;;10.40;99.90;;;;;;6291986;22;20000;-81
2024/03/22 03:58:58;;;;;;;64.50;36.15;;;10.40;99.90;;;;;;6305905;22;48562;-82
2024/03/22 04:01:39;;;;;;;71.22;38.80;;;10.40;99.90;;;;;;6263497;22;38575;-82
2024/03/22 04:04:13;;;;;;;75.00;38.65;;;10.40;99.90;;;;;;6296889;22;39592;-81
2024/03/22 04:06:45;;;;;;;69.28;39.42;;;10.40;99.90;;;;;;6322010;22;39507;-81
2024/03/22 04:09:20;;;;;;;71.40;37.05;;;10.40;99.90;;;;;;6211104;22;40378;-81
2024/03/22 04:12:05;;;;;;;69.72;38.17;;;10.40;99.90;;;;;;6258573;22;20085;-81
2024/03/22 04:15:10;;;;;;;70.38;35.97;;;10.40;99.90;;;;;;6302505;22;37593;-81
2024/03/22 04:18:00;;;;;;;69.93;38.13;;;10.40;99.90;;;;;;6317744;22;50041;-81
2024/03/22 04:20:27;;;;;;;64.93;35.83;;;10.40;99.90;;;;;;6264394;22;40918;-81
2024/03/22 04:23:14;;;;;;;62.28;34.42;;;10.40;99.90;;;;;;6310567;22;38173;-81
2024/03/22 04:25:40;;;;;;;73.55;38.20;;;10.40;99.90;;;;;;6308608;22;48563;-82
2024/03/22 04:28:08;;;;;;;72.15;38.22;;;10.40;99.90;;;;;;6286155;22;37852;-81
2024/03/22 04:30:43;;;;;;;70.88;40.05;;;10.30;99.90;;;;;;6269227;22;40240;-81
2024/03/22 04:33:13;;;;;;;77.22;37.88;;;10.40;99.90;;;;;;6263288;22;38902;-80
2024/03/22 04:35:50;;;;;;;78.43;38.88;;;10.40;99.90;;;;;;6305549;22;37840;-81
2024/03/22 04:38:54;;;;;;;68.45;39.10;;;10.40;99.90;;;;;;6275108;22;48825;-81
2024/03/22 04:41:28;;;;;;;73.70;40.47;;;10.40;99.90;;;;;;6230393;22;38905;-81
2024/03/22 04:44:06;;;;;;;77.78;40.72;;;10.40;99.90;;;;;;6258881;22;37903;-81
2024/03/22 04:46:35;;;;;;;74.03;40.43;;;10.40;99.90;;;;;;6283116;22;47984;-80
2024/03/22 04:49:22;;;;;;;66.75;38.20;;;10.40;99.90;;;;;;6294472;22;38069;-81
2024/03/22 04:52:01;;;;;;;68.82;37.33;;;10.40;99.90;;;;;;6262875;22;39339;-80
2024/03/22 04:54:29;;;;;;;63.07;37.80;;;10.40;99.90;;;;;;6257286;22;48627;-80
2024/03/22 04:56:57;;;;;;;61.92;34.95;;;10.40;99.90;;;;;;6328411;22;38063;-81
2024/03/22 04:59:26;;;;;;;64.30;35.80;;;10.40;99.90;;;;;;6237394;22;38354;-80
2024/03/22 05:01:55;;;;;;;60.53;35.95;;;10.50;99.90;;;;;;6281887;22;38780;-80
2024/03/22 05:04:30;;;;;;;61.70;33.72;;;10.40;99.90;;;;;;6232513;22;39483;-81
2024/03/22 05:07:13;;;;;;;58.10;33.37;;;10.40;99.90;;;;;;6299381;22;37696;-80
2024/03/22 05:09:42;;;;;;;55.53;31.87;;;10.40;99.90;;;;;;6319671;22;48723;-81
2024/03/22 05:12:15;;;;;;;54.17;33.05;;;10.40;99.90;;;;;;6263834;22;38392;-81
2024/03/22 05:14:59;;;;;;;55.80;30.77;;;10.40;99.90;;;;;;6288856;22;40000;-82
2024/03/22 05:17:29;;;;;;;61.92;32.55;;;10.40;99.90;;;;;;6203850;22;38188;-81
2024/03/22 05:20:05;;;;;;;54.50;32.47;;;10.40;99.90;;;;;;6270491;22;39743;-81
2024/03/22 05:22:50;;;;;;;54.78;32.03;;;10.40;99.90;;;;;;6292278;22;49622;-80
2024/03/22 05:25:20;;;;;;;59.53;32.30;;;10.40;99.90;;;;;;6297434;22;39133;-81
2024/03/22 05:27:58;;;;;;;60.83;33.47;;;10.40;99.90;;;;;;6267382;22;37307;-81
2024/03/22 05:31:06;;;;;;;57.78;33.67;;;10.40;99.90;;;;;;6258486;22;40259;-81
2024/03/22 05:33:35;;;;;;;63.60;34.75;;;10.40;99.90;;;;;;6290174;22;49324;-81
2024/03/22 05:36:04;;;;;;;56.50;33.25;;;10.40;99.90;;;;;;6268848;22;37919;-80
2024/03/22 05:38:58;;;;;;;57.38;32.22;;;10.40;99.90;;;;;;6293948;22;48591;-80
2024/03/22 05:41:27;;;;;;;65.97;33.83;;;10.40;99.90;;;;;;6255977;22;40349;-81
2024/03/22 05:44:01;;;;;;;64.10;33.25;;;10.40;99.90;;;;;;6271207;22;38330;-81
2024/03/22 05:46:48;;;;;;;61.55;33.95;;;10.40;99.90;;;;;;6274243;22;50327;-80
2024/03/22 05:49:15;;;;;;;64.83;36.67;;;10.40;99.90;;;;;;6306649;22;38827;-80
2024/03/22 05:51:44;;;;;;;65.63;37.30;;;10.30;99.90;;;;;;6276714;22;38946;-80
2024/03/22 05:54:32;;;;;;;71.95;38.70;;;10.30;99.90;;;;;;6266414;22;39691;-80
2024/03/22 05:57:02;;;;;;;71.65;39.35;;;10.30;99.90;;;;;;6296709;22;37881;-80
2024/03/22 05:59:30;;;;;;;73.05;39.47;;;10.30;99.90;;;;;;6292084;22;49134;-80
2024/03/22 06:01:57;;;;;;;68.43;38.60;;;10.30;99.90;;;;;;6268637;22;38607;-80
2024/03/22 06:04:24;;;;;;;81.35;39.50;;;10.30;99.90;;;;;;6269524;22;37725;-80
2024/03/22 06:06:51;;;;;;;70.10;38.17;;;10.30;99.90;;;;;;6301396;22;39032;-80
2024/03/22 06:09:34;;;;;;;76.30;40.25;;;10.30;99.90;;;;;;6271954;22;36866;-80
2024/03/22 06:12:02;;;;;;;74.03;40.28;;;10.30;99.90;;;;;;6275000;22;39380;-80
2024/03/22 06:14:29;;;;;;;85.03;39.63;;;10.30;99.90;;;;;;6264700;22;47479;-80
2024/03/22 06:16:55;;;;;;;72.20;38.45;;;10.30;99.90;;;;;;6295638;22;39427;-80
2024/03/22 06:19:23;;;;;;;67.75;38.10;;;10.30;99.90;;;;;;6286673;22;37903;-80
2024/03/22 06:21:52;;;;;;;69.05;37.75;;;10.30;99.90;;;;;;6270650;22;38234;-80
2024/03/22 06:24:19;;;;;;;66.22;36.72;;;10.40;99.90;;;;;;6277936;22;39294;-80
2024/03/22 06:26:46;;;;;;;68.38;35.97;;;10.40;99.90;;;;;;6254225;22;37720;-80
2024/03/22 06:29:16;;;;;;;67.13;37.15;;;10.50;99.90;;;;;;6265013;22;36810;-80
2024/03/22 06:31:43;;;;;;;66.40;36.33;;;10.50;99.90;;;;;;6264417;22;38953;-80
2024/03/22 06:34:12;;;;;;;61.10;34.38;;;10.50;99.90;;;;;;6262071;22;38243;-81
2024/03/22 06:36:42;;;;;;;58.85;32.22;;;10.60;99.90;;;;;;6291041;22;40066;-80
2024/03/22 06:39:11;;;;;;;62.75;30.95;;;10.60;99.90;;;;;;6299088;22;39007;-81
2024/03/22 06:41:39;;;;;;;58.15;30.23;;;10.60;99.90;;;;;;6263913;22;39459;-81
2024/03/22 06:44:05;;;;;;;58.03;29.60;;;10.70;99.90;;;;;;6290914;22;40324;-81
2024/03/22 06:46:47;;;;;;;56.00;30.13;;;10.70;99.90;;;;;;6287478;22;39233;-80
2024/03/22 06:49:38;;;;;;;60.13;28.30;;;10.80;99.90;;;;;;6268247;22;37228;-81
2024/03/22 06:52:16;;;;;;;49.72;25.58;;;10.80;99.90;;;;;;6289244;22;41468;-80
2024/03/22 06:54:44;;;;;;;53.85;27.10;;;10.80;99.90;;;;;;6276557;22;38587;-80
2024/03/22 06:57:11;;;;;;;50.97;25.88;;;10.80;99.90;;;;;;6285446;22;38752;-81
2024/03/22 06:59:39;;;;;;;49.90;25.27;;;10.80;99.90;;;;;;6254099;22;37136;-79
2024/03/22 07:02:09;;;;;;;51.97;24.90;;;10.80;99.90;;;;;;6274793;22;38094;-80
2024/03/22 07:04:36;;;;;;;49.30;24.10;;;10.80;99.90;;;;;;6291708;22;39491;-79
2024/03/22 07:07:03;;;;;;;47.33;23.00;;;10.80;99.90;;;;;;6267074;22;37511;-80
2024/03/22 07:09:32;;;;;;;44.00;22.35;;;10.80;99.90;;;;;;6255162;22;47450;-80
2024/03/22 07:11:59;;;;;;;46.22;22.67;;;10.80;99.90;;;;;;6260489;22;37856;-81
2024/03/22 07:14:27;;;;;;;44.20;23.15;;;10.90;99.90;;;;;;6262407;22;38114;-80
2024/03/22 07:16:55;;;;;;;42.30;21.30;;;10.90;99.90;;;;;;6289521;22;39084;-80
2024/03/22 07:19:23;;;;;;;38.58;19.95;;;10.80;99.90;;;;;;6258332;22;36924;-80
2024/03/22 07:21:49;;;;;;;39.50;19.13;;;10.80;99.90;;;;;;6260573;22;38541;-80
2024/03/22 07:24:17;;;;;;;38.33;18.45;;;10.80;99.90;;;;;;6254635;22;37817;-80
2024/03/22 07:26:44;;;;;;;41.45;18.35;;;10.90;99.90;;;;;;6262738;22;38133;-80
2024/03/22 07:29:12;;;;;;;41.00;16.98;;;10.90;99.90;;;;;;6251565;22;37633;-80
2024/03/22 07:31:40;;;;;;;38.78;17.90;;;10.90;99.90;;;;;;6276505;22;37732;-81
2024/03/22 07:34:06;;;;;;;37.60;16.60;;;10.90;99.90;;;;;;6265673;22;38384;-80
2024/03/22 07:36:37;;;;;;;31.92;15.27;;;10.90;99.90;;;;;;6262556;22;38277;-80
2024/03/22 07:39:06;;;;;;;32.55;15.32;;;10.90;99.90;;;;;;6260149;22;36266;-81
2024/03/22 07:41:32;;;;;;;38.17;14.45;;;10.90;99.90;;;;;;6262941;22;39325;-80
2024/03/22 07:44:00;;;;;;;32.85;14.18;;;10.90;99.90;;;;;;6265766;22;38048;-81
2024/03/22 07:46:27;;;;;;;31.05;12.93;;;10.90;99.90;;;;;;6251996;22;38309;-80
2024/03/22 07:48:54;;;;;;;36.33;13.48;;;10.90;99.90;;;;;;6291360;22;37827;-80
2024/03/22 07:51:20;;;;;;;29.13;13.23;;;10.90;99.90;;;;;;6260496;22;37791;-80
2024/03/22 07:53:47;;;;;;;33.42;12.75;;;11.00;99.90;;;;;;6263361;22;37746;-80
2024/03/22 07:56:15;;;;;;;32.35;13.65;;;11.00;99.90;;;;;;6262969;22;38709;-80
2024/03/22 07:58:43;;;;;;;38.47;15.35;;;11.00;99.90;;;;;;6286739;22;37761;-79
2024/03/22 08:01:09;;;;;;;31.40;14.23;;;11.00;99.90;;;;;;6265072;22;38081;-81
2024/03/22 08:03:35;;;;;;;28.10;13.93;;;11.00;99.90;;;;;;6267223;22;37595;-80
2024/03/22 08:06:01;;;;;;;33.92;13.32;;;11.00;99.90;;;;;;6271521;22;37412;-80
2024/03/22 08:08:27;;;;;;;39.00;14.75;;;11.00;99.90;;;;;;6269178;22;48880;-80
2024/03/22 08:10:53;;;;;;;35.92;13.55;;;11.00;99.90;;;;;;6295697;22;40326;-81
2024/03/22 08:13:20;;;;;;;34.47;13.15;;;11.00;99.90;;;;;;6266545;22;37104;-80
2024/03/22 08:15:46;;;;;;;33.53;14.32;;;10.90;99.90;;;;;;6262501;22;37760;-80
2024/03/22 08:18:13;;;;;;;31.38;13.40;;;11.00;99.90;;;;;;6262465;22;37008;-80
2024/03/22 08:20:39;;;;;;;31.77;13.32;;;10.90;99.90;;;;;;6265030;22;37902;-80
2024/03/22 08:23:05;;;;;;;35.97;14.25;;;10.90;99.90;;;;;;6290107;22;39244;-80
2024/03/22 08:25:31;;;;;;;36.80;13.07;;;10.90;99.90;;;;;;6291816;22;38845;-81
2024/03/22 08:27:59;;;;;;;35.67;13.73;;;10.90;99.90;;;;;;6264383;22;37057;-79
2024/03/22 08:30:25;;;;;;;31.23;12.25;;;11.00;99.90;;;;;;6261289;22;38119;-80
2024/03/22 08:32:56;;;;;;;29.73;12.70;;;11.00;99.90;;;;;;6262093;22;37499;-80
2024/03/22 08:35:22;;;;;;;32.20;13.07;;;11.00;99.90;;;;;;6290604;22;38661;-80
2024/03/22 08:37:48;;;;;;;33.72;14.30;;;10.90;99.90;;;;;;6290302;22;38003;-80
2024/03/22 08:40:25;;;;;;;40.45;14.65;;;10.90;99.90;;;;;;6269982;22;37669;-81
2024/03/22 08:42:51;;;;;;;44.40;14.20;;;10.90;99.90;;;;;;6306007;22;40379;-80
2024/03/22 08:45:23;;;;;;;30.80;15.00;;;10.90;99.90;;;;;;6279368;22;38047;-81
2024/03/22 08:47:49;;;;;;;40.83;15.20;;;10.80;99.90;;;;;;6307384;22;37774;-80
2024/03/22 08:50:16;;;;;;;51.42;16.65;;;10.80;99.90;;;;;;6306649;22;39942;-81
2024/03/22 08:52:42;;;;;;;41.90;16.40;;;10.80;99.90;;;;;;6278472;22;38713;-80
2024/03/22 08:55:10;;;;;;;39.42;16.23;;;10.70;99.90;;;;;;6297950;22;38840;-80
2024/03/22 08:57:37;;;;;;;35.30;15.20;;;10.70;99.90;;;;;;6302699;22;37928;-80
2024/03/22 09:00:03;;;;;;;39.20;17.35;;;10.70;99.90;;;;;;6270752;22;39366;-79
2024/03/22 09:02:30;;;;;;;37.00;16.73;;;10.60;99.90;;;;;;6297309;22;38902;-80
2024/03/22 09:04:56;;;;;;;44.72;17.70;;;10.60;99.90;;;;;;6294464;22;37373;-80
2024/03/22 09:07:23;;;;;;;40.78;17.40;;;10.60;99.90;;;;;;6298117;22;37565;-80
2024/03/22 09:09:49;;;;;;;32.22;16.35;;;10.50;99.90;;;;;;6264541;22;40116;-79
2024/03/22 09:12:16;;;;;;;43.90;18.53;;;10.50;99.90;;;;;;6289925;22;39132;-80
2024/03/22 09:14:42;;;;;;;37.80;17.73;;;10.40;99.90;;;;;;6265421;22;37532;-79
2024/03/22 09:17:08;;;;;;;40.03;16.87;;;10.40;99.90;;;;;;6263074;22;38182;-79
2024/03/22 09:19:34;;;;;;;41.00;19.05;;;10.50;99.90;;;;;;6263677;22;37873;-80
2024/03/22 09:22:00;;;;;;;45.03;18.83;;;10.50;99.90;;;;;;6267994;22;38314;-80
2024/03/22 09:24:26;;;;;;;48.03;19.00;;;10.50;99.90;;;;;;6267020;22;39285;-81
2024/03/22 09:26:53;;;;;;;44.97;17.58;;;10.60;99.90;;;;;;6266091;22;37414;-80
2024/03/22 09:29:19;;;;;;;49.63;17.95;;;10.50;99.90;;;;;;6265348;22;39159;-80
2024/03/22 09:31:45;;;;;;;43.55;16.58;;;10.50;99.90;;;;;;6292843;22;39188;-79
2024/03/22 09:34:12;;;;;;;41.88;16.90;;;10.60;99.90;;;;;;6288397;22;38508;-79
2024/03/22 09:36:38;;;;;;;40.15;15.00;;;10.60;99.90;;;;;;6264829;22;38468;-80
2024/03/22 09:39:05;;;;;;;44.50;16.85;;;10.70;99.90;;;;;;6261153;22;37410;-80
2024/03/22 09:41:40;;;;;;;37.03;15.20;;;10.70;99.90;;;;;;6259776;22;38893;-80
2024/03/22 09:44:08;;;;;;;47.88;16.40;;;10.70;99.90;;;;;;6257435;22;38700;-80
2024/03/22 09:46:35;;;;;;;52.10;16.25;;;10.70;99.90;;;;;;6258929;22;36462;-80
2024/03/22 09:49:02;;;;;;;53.40;16.58;;;10.70;99.90;;;;;;6285303;22;39973;-79
2024/03/22 09:51:29;;;;;;;36.08;13.32;;;10.70;99.90;;;;;;6255320;22;47882;-79
2024/03/22 09:53:55;;;;;;;29.30;13.05;;;10.70;99.90;;;;;;6255764;22;39221;-78
2024/03/22 09:56:22;;;;;;;44.03;13.90;;;10.60;99.90;;;;;;6256054;22;38315;-79
2024/03/22 09:58:49;;;;;;;37.30;13.30;;;10.70;99.90;;;;;;6283269;22;39873;-79
2024/03/22 10:01:16;;;;;;;29.50;12.13;;;10.60;99.90;;;;;;6254331;22;39452;-79
2024/03/22 10:03:43;;;;;;;39.65;14.35;;;10.70;99.90;;;;;;6255922;22;39154;-79
2024/03/22 10:06:09;;;;;;;40.42;13.35;;;10.70;99.90;;;;;;6255442;22;38141;-80
2024/03/22 10:08:36;;;;;;;34.22;12.52;;;10.70;99.90;;;;;;6256598;22;37990;-79
2024/03/22 10:11:03;;;;;;;35.65;12.70;;;10.70;99.90;;;;;;6256647;22;39861;-79
2024/03/22 10:13:29;;;;;;;33.22;11.02;;;10.70;99.90;;;;;;6282943;22;39139;-79
2024/03/22 10:15:57;;;;;;;36.08;11.43;;;10.70;99.90;;;;;;6252708;22;38731;-78
2024/03/22 10:18:23;;;;;;;28.00;10.60;;;10.80;99.90;;;;;;6253440;22;39523;-79
2024/03/22 10:21:03;;;;;;;27.25;10.45;;;10.80;99.90;;;;;;6254550;22;39199;-79
2024/03/22 10:23:30;;;;;;;31.67;11.52;;;10.90;99.90;;;;;;6280588;22;49079;-79
2024/03/22 10:26:00;;;;;;;37.15;11.23;;;10.80;99.90;;;;;;6284342;22;38106;-79
2024/03/22 10:28:27;;;;;;;30.67;10.60;;;10.70;99.90;;;;;;6254243;22;38143;-79
2024/03/22 10:30:53;;;;;;;38.53;11.23;;;10.70;99.90;;;;;;6254362;22;39318;-79
2024/03/22 10:33:23;;;;;;;38.30;11.85;;;10.70;99.90;;;;;;6253528;22;37936;-79
2024/03/22 10:35:53;;;;;;;23.40;10.82;;;10.70;99.90;;;;;;6257257;22;37682;-79
2024/03/22 10:38:20;;;;;;;33.03;11.02;;;10.70;99.90;;;;;;6254323;22;38689;-79
2024/03/22 10:40:48;;;;;;;26.75;9.80;;;10.80;99.90;;;;;;6253932;22;37951;-79
2024/03/22 10:43:15;;;;;;;18.92;10.05;;;10.80;99.90;;;;;;6252297;22;38769;-79
2024/03/22 10:45:42;;;;;;;26.35;9.60;;;10.90;99.90;;;;;;6252164;22;37240;-79
2024/03/22 10:48:10;;;;;;;25.38;10.43;;;10.90;99.90;;;;;;6251393;22;38707;-78
2024/03/22 10:50:41;;;;;;;30.58;11.15;;;11.00;99.90;;;;;;6252621;22;37791;-79
2024/03/22 10:53:13;;;;;;;19.23;9.52;;;11.00;99.90;;;;;;6255865;22;38745;-78
2024/03/22 10:55:44;;;;;;;17.97;8.30;;;10.90;99.90;;;;;;6279668;22;38006;-78
2024/03/22 10:58:17;;;;;;;18.02;9.75;;;10.90;99.90;;;;;;6284854;22;39204;-78
2024/03/22 11:00:44;;;;;;;17.55;8.40;;;10.90;99.90;;;;;;6257767;22;38172;-78
2024/03/22 11:03:12;;;;;;;18.75;8.70;;;10.90;99.90;;;;;;6277629;22;38466;-78
2024/03/22 11:05:46;;;;;;;13.70;8.25;;;10.90;99.90;;;;;;6257902;22;36244;-78
2024/03/22 11:08:13;;;;;;;13.07;8.93;;;11.00;99.90;;;;;;6259836;22;37977;-79
2024/03/22 11:10:40;;;;;;;18.20;10.18;;;11.00;99.90;;;;;;6261718;22;38773;-79
2024/03/22 11:13:08;;;;;;;16.80;10.10;;;10.90;99.90;;;;;;6259609;22;38189;-78
2024/03/22 11:15:35;;;;;;;26.20;11.30;;;10.80;99.90;;;;;;6256620;22;36795;-78
2024/03/22 11:18:01;;;;;;;15.63;10.00;;;10.80;99.90;;;;;;6277204;22;38396;-77
2024/03/22 11:20:29;;;;;;;20.38;11.50;;;10.80;99.90;;;;;;6249426;22;47217;-78
2024/03/22 11:22:56;;;;;;;18.48;10.63;;;10.80;99.90;;;;;;6249507;22;37698;-78
2024/03/22 11:25:22;;;;;;;15.30;10.40;;;10.80;99.90;;;;;;6248037;22;36024;-78
2024/03/22 11:27:48;;;;;;;22.13;9.98;;;10.80;99.90;;;;;;6249057;22;39173;-78
2024/03/22 11:30:16;;;;;;;18.08;10.68;;;10.90;99.90;;;;;;6247955;22;37674;-77
2024/03/22 11:32:45;;;;;;;23.92;10.68;;;10.90;99.90;;;;;;6250295;22;38280;-78
2024/03/22 11:35:12;;;;;;;18.95;10.55;;;11.00;99.90;;;;;;6248339;22;36211;-78
2024/03/22 11:37:42;;;;;;;18.33;11.73;;;11.00;99.90;;;;;;6249505;22;38337;-78
2024/03/22 11:40:12;;;;;;;20.30;9.13;;;11.00;99.90;;;;;;6274198;22;39335;-78
2024/03/22 11:42:42;;;;;;;17.20;10.38;;;11.00;99.90;;;;;;6248753;22;38770;-78
2024/03/22 11:45:10;;;;;;;19.40;11.75;;;10.90;99.90;;;;;;6248219;22;39016;-77
2024/03/22 11:47:37;;;;;;;16.60;10.30;;;10.90;99.90;;;;;;6277199;22;39732;-77
2024/03/22 11:50:03;;;;;;;21.30;11.00;;;10.90;99.90;;;;;;6249784;22;39091;-78
2024/03/22 11:52:30;;;;;;;17.50;10.52;;;10.90;99.90;;;;;;6249163;22;40034;-78
2024/03/22 11:54:57;;;;;;;17.30;10.52;;;10.90;99.90;;;;;;6282255;22;37996;-78
2024/03/22 11:57:24;;;;;;;20.58;11.48;;;10.90;99.90;;;;;;6253599;22;38628;-77
2024/03/22 11:59:51;;;;;;;15.85;10.35;;;11.00;99.90;;;;;;6258419;22;37641;-78
2024/03/22 12:02:18;;;;;;;21.13;11.30;;;11.10;99.90;;;;;;6284665;22;38428;-78
2024/03/22 12:04:47;;;;;;;17.83;10.27;;;11.20;99.90;;;;;;6252735;22;37319;-77
2024/03/22 12:07:14;;;;;;;20.23;10.43;;;11.20;99.90;;;;;;6277035;22;38677;-78
2024/03/22 12:09:46;;;;;;;15.35;9.18;;;11.20;99.90;;;;;;6249373;22;39526;-78
2024/03/22 12:12:13;;;;;;;20.35;10.48;;;11.30;99.90;;;;;;6249574;22;38796;-78
2024/03/22 12:14:40;;;;;;;15.18;8.88;;;11.30;99.90;;;;;;6253818;22;37740;-77
2024/03/22 12:17:06;;;;;;;19.58;10.65;;;11.30;99.90;;;;;;6248392;22;38368;-78
2024/03/22 12:19:33;;;;;;;10.85;7.65;;;11.30;99.90;;;;;;6276794;22;39059;-78
2024/03/22 12:21:59;;;;;;;11.07;7.72;;;11.30;99.90;;;;;;6277838;22;38321;-77
2024/03/22 12:24:29;;;;;;;12.13;7.15;;;11.20;99.90;;;;;;6249723;22;38201;-77
2024/03/22 12:26:55;;;;;;;9.32;6.72;;;11.20;99.90;;;;;;6251794;22;39971;-77
2024/03/22 12:29:22;;;;;;;12.65;7.72;;;11.10;99.90;;;;;;6260798;22;39508;-78
2024/03/22 12:31:48;;;;;;;10.90;7.03;;;11.10;99.90;;;;;;6287088;22;39260;-77
2024/03/22 12:34:14;;;;;;;10.93;7.50;;;11.00;99.90;;;;;;6278298;22;36957;-78
2024/03/22 12:36:40;;;;;;;11.27;7.43;;;10.90;99.90;;;;;;6252167;22;40511;-77
2024/03/22 12:39:07;;;;;;;13.48;8.95;;;10.90;99.90;;;;;;6250673;22;38875;-77
2024/03/22 12:41:34;;;;;;;12.73;9.48;;;10.90;99.90;;;;;;6250241;22;39829;-78
2024/03/22 12:44:00;;;;;;;13.57;9.50;;;10.90;99.90;;;;;;6251658;22;37677;-78
2024/03/22 12:46:27;;;;;;;17.98;11.65;;;10.80;99.90;;;;;;6277065;22;48424;-77
2024/03/22 12:48:54;;;;;;;15.32;10.00;;;10.90;99.90;;;;;;6249121;22;39220;-77
2024/03/22 12:51:20;;;;;;;19.23;11.48;;;10.90;99.90;;;;;;6249235;22;40091;-77
2024/03/22 12:53:46;;;;;;;15.35;11.35;;;10.80;99.90;;;;;;6250509;22;38264;-77
2024/03/22 12:56:12;;;;;;;20.15;13.13;;;10.80;99.90;;;;;;6277045;22;38786;-77
2024/03/22 12:58:39;;;;;;;17.85;12.70;;;10.80;99.90;;;;;;6280266;22;39629;-76
2024/03/22 13:01:05;;;;;;;23.20;14.05;;;10.80;99.90;;;;;;6278761;22;38305;-76
2024/03/22 13:03:34;;;;;;;21.10;14.00;;;10.70;99.90;;;;;;6252398;22;39185;-76
2024/03/22 13:06:01;;;;;;;21.92;13.15;;;10.70;99.90;;;;;;6279384;22;39615;-75
2024/03/22 13:08:27;;;;;;;27.02;15.18;;;10.70;99.90;;;;;;6276918;22;47510;-76
2024/03/22 13:10:53;;;;;;;27.60;16.42;;;10.80;99.90;;;;;;6278468;22;38355;-75
2024/03/22 13:13:19;;;;;;;28.92;15.25;;;10.80;99.90;;;;;;6250705;22;38066;-76
2024/03/22 13:15:46;;;;;;;31.63;16.63;;;10.80;99.90;;;;;;6251060;22;38000;-77
2024/03/22 13:18:13;;;;;;;30.00;16.05;;;10.90;99.90;;;;;;6277527;22;39839;-76
2024/03/22 13:20:39;;;;;;;26.45;15.35;;;10.90;99.90;;;;;;6249910;22;37536;-76
2024/03/22 13:23:07;;;;;;;29.35;15.73;;;10.90;99.90;;;;;;6249475;22;36319;-76
2024/03/22 13:25:37;;;;;;;25.88;16.30;;;10.80;99.90;;;;;;6249681;22;39614;-76
2024/03/22 13:28:05;;;;;;;27.50;15.63;;;10.80;99.90;;;;;;6277359;22;38948;-76
2024/03/22 13:30:31;;;;;;;25.33;14.70;;;10.90;99.90;;;;;;6247225;22;39247;-76
2024/03/22 13:32:58;;;;;;;29.48;15.60;;;10.90;99.90;;;;;;6249727;22;37651;-75